Coaldale, West Virginia
Current Conditions -  °F | °C
As of 11:52 PM on Sunday 19 Oct 2014 (Local Time) from KBLF Reporting Station
Clear Clear  
Wind Chill: 44°   Ceiling: Unl
Heat Index: 44°   Visibility: 10mi
Dew Point: 34°   Wind: 3mph
Humidity: 68%   Direction: 140°SE
Pressure: 30.13"   Gusts: NA
Location:  37.3633°N, 81.3346°W
Report Text: KBLF 200352Z AUTO 14003KT 10SM CLR 07/01 A3013 RMK AO2 SLP198 T00670011
Loading
Personal Weather Stations






























Interactive Weather Map
Tropical Storm Tracking
New forecast layout! Learn more

10-Day Weather Forecast

Advertisements
Track Severe Weather on mobile